Time;durP1;ratioP1;P1;durP2;ratioP2;P2;SDS_P1;SDS_P2;PMS_P1;PMS_P2;Temp;Humidity;BMP_temperature;BMP_pressure;BME280_temperature;BME280_humidity;BME280_pressure;Samples;Min_cycle;Max_cycle;Signal;HPM_P1;HPM_P2
2022/08/05 04:08:45;;;;;;;11.88;5.12;;;;;;;23.18;53.67;100444.53;5605901;31;77932;-57
2022/08/05 04:11:50;;;;;;;6.05;4.90;;;;;;;23.18;53.67;100444.53;5583623;31;34160;-57
2022/08/05 04:14:54;;;;;;;8.82;5.43;;;;;;;22.67;54.65;100450.16;5584028;31;33676;-57
2022/08/05 04:18:02;;;;;;;9.77;4.87;;;;;;;22.72;54.56;100447.16;5583267;31;33632;-57
2022/08/05 04:21:08;;;;;;;14.98;5.25;;;;;;;22.79;54.44;100451.97;5583550;32;34162;-57
2022/08/05 04:24:13;;;;;;;9.82;5.00;;;;;;;22.77;54.67;100451.53;5584031;31;33812;-57
2022/08/05 04:27:23;;;;;;;7.43;5.10;;;;;;;22.84;54.45;100440.72;5583636;31;33520;-57
2022/08/05 04:30:46;;;;;;;8.35;4.80;;;;;;;22.98;54.32;100447.28;5583119;31;34418;-57
2022/08/05 04:33:49;;;;;;;7.90;5.00;;;;;;;22.95;54.15;100439.81;5583171;31;33568;-57
2022/08/05 04:37:11;;;;;;;8.20;5.15;;;;;;;23.05;54.11;100445.84;5583619;31;33486;-57
2022/08/05 04:40:13;;;;;;;8.98;5.15;;;;;;;23.14;54.20;100447.16;5583754;32;33716;-57
2022/08/05 04:43:20;;;;;;;8.75;4.62;;;;;;;23.20;54.02;100439.47;5583654;31;33761;-57
2022/08/05 04:46:23;;;;;;;8.40;4.57;;;;;;;23.26;54.28;100445.44;5576496;31;34182;-57
2022/08/05 04:49:29;;;;;;;8.77;5.07;;;;;;;23.33;54.14;100445.56;5563776;32;33676;-57
2022/08/05 04:52:51;;;;;;;7.57;4.80;;;;;;;23.45;54.02;100451.63;5564174;32;33626;-57
2022/08/05 04:55:54;;;;;;;7.97;4.95;;;;;;;23.51;54.28;100448.56;5564163;32;34070;-57
2022/08/05 04:59:16;;;;;;;6.95;5.10;;;;;;;23.54;53.95;100450.56;5572054;32;33708;-57
2022/08/05 05:02:37;;;;;;;6.32;4.78;;;;;;;23.63;53.84;100451.13;5583477;32;33565;-57
2022/08/05 05:05:44;;;;;;;10.23;5.12;;;;;;;23.75;53.12;100448.22;5583473;31;33561;-57
2022/08/05 05:09:06;;;;;;;11.20;5.00;;;;;;;23.85;53.07;100449.53;5582639;32;33688;-57
2022/08/05 05:12:08;;;;;;;11.50;5.57;;;;;;;23.96;51.93;100449.69;5583527;32;34271;-57
2022/08/05 05:15:12;;;;;;;10.27;5.05;;;;;;;24.10;51.53;100441.66;5583446;32;33759;-57
2022/08/05 05:18:18;;;;;;;9.63;4.85;;;;;;;24.17;51.99;100441.75;5578378;32;33389;-57
2022/08/05 05:21:32;;;;;;;7.62;5.18;;;;;;;24.22;51.05;100435.97;5570437;32;35207;-57
2022/08/05 05:24:34;;;;;;;8.60;5.05;;;;;;;24.38;51.34;100433.84;5570305;32;33657;-58
2022/08/05 05:27:56;;;;;;;6.78;5.25;;;;;;;24.58;49.75;100434.50;5569607;32;33733;-57
2022/08/05 05:30:58;;;;;;;13.80;5.40;;;;;;;24.72;48.74;100433.87;5569188;32;33732;-58
2022/08/05 05:34:01;;;;;;;9.85;4.85;;;;;;;24.94;49.27;100439.59;5561790;32;33461;-57
2022/08/05 05:37:03;;;;;;;8.65;4.60;;;;;;;25.10;48.60;100426.44;5570155;32;33642;-57
2022/08/05 05:40:07;;;;;;;11.93;4.62;;;;;;;25.25;46.41;100427.37;5569806;32;33684;-57
2022/08/05 05:43:12;;;;;;;12.25;4.75;;;;;;;25.40;46.56;100431.03;5568741;32;34314;-58
2022/08/05 05:46:15;;;;;;;13.60;4.28;;;;;;;25.52;44.94;100427.97;5568443;32;33582;-58
2022/08/05 05:49:20;;;;;;;11.25;4.40;;;;;;;25.64;43.96;100429.66;5569270;32;33741;-57
2022/08/05 05:52:24;;;;;;;11.12;4.50;;;;;;;25.75;42.86;100423.03;5557998;32;32438;-58
2022/08/05 05:55:34;;;;;;;14.45;4.30;;;;;;;25.89;42.70;100430.63;5569614;32;33644;-57
2022/08/05 05:58:56;;;;;;;13.23;4.25;;;;;;;26.02;42.96;100418.12;5569492;32;33669;-58
2022/08/05 06:02:04;;;;;;;11.88;4.45;;;;;;;26.15;42.10;100421.34;5569716;32;33754;-58
2022/08/05 06:05:11;;;;;;;12.25;4.75;;;;;;;26.31;42.11;100428.50;5568176;32;34409;-57
2022/08/05 06:08:18;;;;;;;20.60;4.82;;;;;;;26.37;41.13;100422.25;5569719;32;33059;-57
2022/08/05 06:11:34;;;;;;;11.63;4.32;;;;;;;26.46;41.73;100425.41;5569335;32;33312;-57
2022/08/05 06:14:43;;;;;;;14.07;3.92;;;;;;;26.59;41.33;100423.13;5569466;32;33654;-58
2022/08/05 06:17:45;;;;;;;;;;;;;;;26.73;40.43;100421.59;5569495;32;33869;-58
2022/08/05 06:20:55;;;;;;;18.10;4.80;;;;;;;26.81;40.82;100431.44;5568458;32;34524;-58
2022/08/05 06:23:58;;;;;;;9.98;4.47;;;;;;;26.85;40.54;100422.00;5569582;32;34407;-57
2022/08/05 06:27:02;;;;;;;12.60;4.20;;;;;;;26.94;41.99;100427.94;5569476;32;33711;-58
2022/08/05 06:30:06;;;;;;;9.20;4.40;;;;;;;26.99;39.12;100429.53;5568585;32;33739;-58
2022/08/05 06:33:22;;;;;;;18.83;4.53;;;;;;;27.13;39.23;100424.06;5569308;32;33277;-57
2022/08/05 06:36:44;;;;;;;9.32;3.60;;;;;;;27.10;38.39;100424.03;5567441;32;33586;-58
2022/08/05 06:39:59;;;;;;;;;;;;;;;27.23;39.11;100424.47;5569906;32;33810;-58
2022/08/05 06:43:03;;;;;;;9.20;3.97;;;;;;;27.26;39.05;100423.69;5568900;32;34641;-58
2022/08/05 06:46:05;;;;;;;13.48;3.30;;;;;;;27.40;38.31;100424.44;5569257;32;33746;-58
2022/08/05 06:49:08;;;;;;;13.20;3.80;;;;;;;27.43;38.36;100425.62;5569082;32;33676;-58
2022/08/05 06:52:13;;;;;;;7.85;3.37;;;;;;;27.48;36.73;100430.72;5569458;32;33647;-58
2022/08/05 06:55:35;;;;;;;17.85;4.28;;;;;;;27.60;37.15;100421.28;5568520;32;33618;-58
2022/08/05 06:58:37;;;;;;;9.63;3.83;;;;;;;27.58;36.89;100424.47;5569097;32;33762;-58
2022/08/05 07:01:40;;;;;;;8.05;3.65;;;;;;;27.69;37.85;100427.19;5569321;32;34428;-57
2022/08/05 07:04:43;;;;;;;7.50;3.75;;;;;;;27.71;37.05;100429.53;5569173;32;33710;-58
2022/08/05 07:07:47;;;;;;;9.90;3.30;;;;;;;27.76;37.30;100423.63;5567724;32;34268;-57
2022/08/05 07:10:50;;;;;;;13.45;3.45;;;;;;;27.80;36.34;100424.44;5564058;32;33601;-58
2022/08/05 07:17:21;;;;;;;19.55;4.40;;;;;;;27.89;37.71;100421.28;5549644;32;33992;-58
2022/08/05 07:20:44;;;;;;;7.70;3.30;;;;;;;27.98;37.94;100425.19;5548889;32;34282;-58
2022/08/05 07:23:46;;;;;;;13.48;3.65;;;;;;;28.04;36.94;100420.81;5555608;32;33899;-58
2022/08/05 07:26:53;;;;;;;5.93;3.08;;;;;;;28.08;35.99;100412.56;5568142;32;34400;-58
2022/08/05 07:29:57;;;;;;;10.77;3.55;;;;;;;28.16;35.98;100418.84;5568822;32;34259;-58
2022/08/05 07:33:20;;;;;;;8.60;3.42;;;;;;;28.25;35.82;100421.97;5568672;32;33687;-58
2022/08/05 07:36:38;;;;;;;11.30;3.83;;;;;;;28.28;36.09;100415.66;5568702;32;34194;-58
2022/08/05 07:39:40;;;;;;;8.40;3.12;;;;;;;28.36;36.21;100414.44;5567758;32;33691;-58
2022/08/05 07:43:02;;;;;;;9.82;3.35;;;;;;;28.44;35.19;100415.19;5567047;32;34301;-58
2022/08/05 07:46:22;;;;;;;10.65;3.42;;;;;;;28.56;35.11;100410.03;5568684;32;33738;-58
2022/08/05 07:49:26;;;;;;;8.45;3.22;;;;;;;28.62;34.17;100406.84;5568723;32;34522;-58
2022/08/05 07:52:29;;;;;;;7.22;3.03;;;;;;;28.62;34.35;100406.84;5568507;32;34348;-58
2022/08/05 07:55:32;;;;;;;9.48;3.42;;;;;;;28.75;34.50;100399.69;5568453;32;33900;-57
2022/08/05 07:58:54;;;;;;;6.05;3.92;;;;;;;28.76;34.38;100401.25;5564689;32;33406;-58
2022/08/05 08:02:01;;;;;;;8.82;3.53;;;;;;;28.84;34.26;100407.50;5568085;32;34171;-58
2022/08/05 08:05:05;;;;;;;8.88;3.75;;;;;;;28.86;33.25;100403.16;5568340;32;34351;-58
2022/08/05 08:08:11;;;;;;;7.12;4.15;;;;;;;28.88;34.30;100406.28;5563553;32;33807;-58
2022/08/05 08:11:16;;;;;;;7.40;3.65;;;;;;;28.96;33.97;100405.03;5568438;32;34382;-58
2022/08/05 08:14:28;;;;;;;6.75;3.28;;;;;;;29.06;34.23;100406.19;5568278;32;33396;-58
2022/08/05 08:17:31;;;;;;;10.05;3.70;;;;;;;29.05;33.49;100398.31;5567208;32;33631;-58
2022/08/05 08:20:36;;;;;;;10.65;3.90;;;;;;;29.13;33.99;100400.59;5565128;32;33639;-58
2022/08/05 08:23:59;;;;;;;8.60;3.78;;;;;;;29.19;33.99;100398.97;5561435;32;33592;-58
2022/08/05 08:27:07;;;;;;;11.32;3.60;;;;;;;29.17;34.26;100397.81;5568119;32;34275;-58
2022/08/05 08:30:10;;;;;;;6.85;3.53;;;;;;;29.14;34.16;100396.69;5566589;32;33673;-58
2022/08/05 08:33:33;;;;;;;8.02;3.33;;;;;;;29.26;33.50;100398.16;5563576;32;34354;-58
2022/08/05 08:36:39;;;;;;;6.53;3.30;;;;;;;29.21;33.71;100398.59;5565200;32;33592;-58
2022/08/05 08:39:55;;;;;;;6.15;3.60;;;;;;;29.24;33.52;100395.03;5565404;32;34287;-58
2022/08/05 08:42:59;;;;;;;6.62;3.42;;;;;;;29.34;32.18;100396.91;5566803;32;33922;-58
2022/08/05 08:46:23;;;;;;;9.07;3.67;;;;;;;29.37;31.98;100392.53;5567385;31;33656;-57
2022/08/05 08:49:26;;;;;;;8.23;3.50;;;;;;;29.53;32.89;100387.25;5567307;32;33421;-58
2022/08/05 08:52:55;;;;;;;6.62;3.25;;;;;;;29.56;32.05;100393.94;5567639;32;33728;-58
2022/08/05 08:55:57;;;;;;;4.55;3.30;;;;;;;29.57;32.63;100389.97;5569761;32;33571;-58
2022/08/05 08:59:06;;;;;;;10.27;3.70;;;;;;;29.65;31.83;100392.28;5570262;32;34381;-58
2022/08/05 09:02:22;;;;;;;5.75;3.53;;;;;;;29.73;32.47;100388.28;5570432;32;33637;-58
2022/08/05 09:05:27;;;;;;;7.32;3.90;;;;;;;29.84;32.40;100390.13;5570140;32;34214;-58
2022/08/05 09:08:40;;;;;;;5.95;3.00;;;;;;;29.79;32.00;100385.81;5570000;32;34312;-58
2022/08/05 09:11:45;;;;;;;8.63;3.53;;;;;;;29.83;31.73;100380.25;5570207;32;33531;-58
2022/08/05 09:14:53;;;;;;;9.70;3.40;;;;;;;29.91;30.86;100382.53;5567346;32;33567;-58
2022/08/05 09:18:08;;;;;;;7.53;3.50;;;;;;;29.92;31.34;100381.34;5549997;32;33769;-58
2022/08/05 09:21:14;;;;;;;8.93;3.55;;;;;;;30.07;31.67;100372.87;5556982;32;33721;-58
2022/08/05 09:24:22;;;;;;;7.62;3.40;;;;;;;30.13;31.69;100373.97;5564304;32;34312;-58
2022/08/05 09:27:36;;;;;;;8.07;3.28;;;;;;;30.29;31.81;100373.41;5568792;32;33845;-58
2022/08/05 09:31:05;;;;;;;8.37;3.60;;;;;;;30.23;30.76;100369.53;5563024;32;34296;-58
2022/08/05 09:34:45;;;;;;;21.20;4.30;;;;;;;30.27;31.54;100362.78;5560923;32;33895;-58
2022/08/05 09:37:49;;;;;;;5.03;3.65;;;;;;;30.30;31.07;100358.38;5569109;32;34337;-58
2022/08/05 09:41:12;;;;;;;10.65;3.70;;;;;;;30.27;31.00;100360.00;5564297;32;33630;-58
2022/08/05 09:44:35;;;;;;;11.10;3.55;;;;;;;30.29;31.47;100351.28;5560560;32;33706;-58
2022/08/05 09:47:41;;;;;;;8.07;4.47;;;;;;;30.28;31.96;100350.50;5563374;31;33759;-58
2022/08/05 09:50:58;;;;;;;8.80;3.72;;;;;;;30.36;31.67;100342.91;5568251;32;33447;-58
2022/08/05 09:54:05;;;;;;;5.03;3.35;;;;;;;30.42;31.00;100338.47;5568472;32;34338;-58
2022/08/05 09:57:07;;;;;;;7.28;3.60;;;;;;;30.48;31.45;100342.34;5569598;32;34346;-58
2022/08/05 10:00:24;;;;;;;8.27;3.33;;;;;;;30.63;30.85;100334.63;5561266;32;33733;-58
2022/08/05 10:03:28;;;;;;;3.85;3.00;;;;;;;30.55;31.36;100331.16;5563194;32;34409;-58
2022/08/05 10:06:55;;;;;;;8.35;3.60;;;;;;;30.66;30.80;100328.22;5569243;32;33591;-58
2022/08/05 10:10:02;;;;;;;6.00;3.33;;;;;;;30.67;30.98;100327.03;5568983;32;33734;-58
2022/08/05 10:13:28;;;;;;;7.28;3.47;;;;;;;30.67;30.36;100322.28;5568418;32;34362;-58
2022/08/05 10:16:47;;;;;;;7.22;3.25;;;;;;;30.64;31.22;100316.81;5568631;32;33439;-58
2022/08/05 10:19:54;;;;;;;8.73;3.72;;;;;;;30.69;31.44;100310.00;5568731;32;33625;-58
2022/08/05 10:23:13;;;;;;;4.28;3.03;;;;;;;30.83;29.98;100318.91;5565330;31;33669;-58
2022/08/05 10:26:36;;;;;;;7.10;3.40;;;;;;;30.87;30.22;100307.78;5561333;32;33871;-58
2022/08/05 10:29:53;;;;;;;4.72;2.95;;;;;;;30.90;29.77;100309.72;5565534;32;33647;-58
2022/08/05 10:33:16;;;;;;;8.88;3.80;;;;;;;30.92;29.62;100306.50;5567025;32;33286;-58
2022/08/05 10:36:20;;;;;;;5.78;3.50;;;;;;;30.97;29.45;100298.50;5568148;32;34028;-58
2022/08/05 10:39:32;;;;;;;9.15;3.92;;;;;;;31.05;29.36;100296.38;5568541;32;33212;-58
2022/08/05 10:43:01;;;;;;;6.18;3.50;;;;;;;31.03;30.07;100296.81;5562850;32;34416;-58
2022/08/05 10:46:08;;;;;;;4.82;3.45;;;;;;;31.19;29.43;100292.56;5568441;32;34416;-58
2022/08/05 10:49:13;;;;;;;6.03;3.28;;;;;;;31.20;29.50;100288.63;5568937;32;34302;-58
2022/08/05 10:52:36;;;;;;;;;;;;;;;31.25;28.95;100291.66;5566742;31;33634;-58
2022/08/05 10:56:12;;;;;;;7.47;3.30;;;;;;;31.20;28.91;100288.63;5566424;32;34544;-58
2022/08/05 10:59:31;;;;;;;5.43;3.22;;;;;;;31.31;29.33;100287.19;5561745;32;33165;-58
2022/08/05 11:03:02;;;;;;;4.30;3.35;;;;;;;31.22;28.99;100281.44;5565462;32;33751;-58
2022/08/05 11:06:25;;;;;;;7.12;3.65;;;;;;;31.20;29.04;100278.31;5564827;32;33791;-58
2022/08/05 11:09:42;;;;;;;12.23;3.60;;;;;;;31.30;29.20;100276.56;5549822;32;33874;-58
2022/08/05 11:12:47;;;;;;;6.28;3.33;;;;;;;31.28;28.47;100271.44;5567606;32;33908;-58
2022/08/05 11:16:20;;;;;;;4.82;3.58;;;;;;;31.28;28.53;100270.66;5556520;32;33655;-58
2022/08/05 11:19:30;;;;;;;5.97;3.62;;;;;;;31.41;29.08;100268.84;5563851;32;33465;-58
2022/08/05 11:22:52;;;;;;;6.37;3.90;;;;;;;31.54;28.28;100269.00;5568780;32;33899;-58
2022/08/05 11:26:10;;;;;;;5.68;3.55;;;;;;;31.50;28.19;100271.84;5567624;32;33707;-58
2022/08/05 11:29:33;;;;;;;5.37;3.40;;;;;;;31.43;28.12;100263.69;5567877;32;33711;-58
2022/08/05 11:32:38;;;;;;;6.68;3.12;;;;;;;31.35;28.38;100257.47;5569114;32;33664;-58
2022/08/05 11:35:55;;;;;;;3.78;3.15;;;;;;;31.45;28.34;100264.00;5568585;31;33737;-58
2022/08/05 11:39:11;;;;;;;3.47;3.17;;;;;;;31.37;28.20;100254.28;5567272;32;33841;-58
2022/08/05 11:42:16;;;;;;;4.30;3.60;;;;;;;31.53;28.15;100259.12;5569131;32;33971;-58
2022/08/05 11:45:19;;;;;;;4.15;3.50;;;;;;;31.53;28.04;100259.91;5567870;32;34383;-58
2022/08/05 11:48:42;;;;;;;6.45;3.83;;;;;;;31.55;28.22;100254.69;5568658;32;33739;-58
2022/08/05 11:51:47;;;;;;;4.45;3.55;;;;;;;31.65;28.12;100258.47;5563036;32;34383;-58
2022/08/05 11:54:52;;;;;;;4.03;3.35;;;;;;;31.59;27.79;100258.19;5558797;32;33595;-59
2022/08/05 11:57:56;;;;;;;10.10;4.10;;;;;;;31.61;27.91;100257.75;5555715;32;33737;-58
2022/08/05 12:01:15;;;;;;;5.37;3.70;;;;;;;31.67;27.84;100263.59;5558321;32;33619;-58
2022/08/05 12:04:21;;;;;;;5.80;3.58;;;;;;;31.77;27.22;100259.81;5568772;32;33802;-58
2022/08/05 12:07:33;;;;;;;5.10;3.45;;;;;;;31.82;27.02;100260.09;5560069;32;34340;-58
2022/08/05 12:10:59;;;;;;;5.72;3.58;;;;;;;31.75;27.34;100257.47;5565594;32;34330;-58
2022/08/05 12:14:07;;;;;;;4.87;3.83;;;;;;;31.82;27.71;100254.56;5567073;32;34482;-58
2022/08/05 12:17:13;;;;;;;7.03;3.78;;;;;;;31.81;27.34;100249.44;5567391;32;34485;-58
2022/08/05 12:20:37;;;;;;;10.73;3.47;;;;;;;31.91;26.56;100242.12;5566628;32;33787;-58
2022/08/05 12:23:56;;;;;;;9.43;3.62;;;;;;;31.93;27.01;100245.25;5565144;31;33734;-58
2022/08/05 12:27:01;;;;;;;7.82;3.95;;;;;;;31.88;27.03;100243.75;5567245;32;34467;-58
2022/08/05 12:30:22;;;;;;;3.60;3.28;;;;;;;31.92;26.67;100236.16;5569593;32;33785;-58
2022/08/05 12:33:33;;;;;;;4.80;3.60;;;;;;;31.97;26.26;100232.09;5569780;32;33666;-58
2022/08/05 12:36:40;;;;;;;9.35;3.45;;;;;;;32.10;26.87;100232.97;5555197;32;33547;-58
2022/08/05 12:39:43;;;;;;;9.55;3.80;;;;;;;32.07;26.79;100236.59;5567523;32;34309;-58
2022/08/05 12:42:52;;;;;;;8.82;3.30;;;;;;;32.06;26.52;100232.28;5570660;32;33290;-58
2022/08/05 12:45:55;;;;;;;5.03;3.25;;;;;;;32.04;26.62;100227.16;5569756;32;33627;-58
2022/08/05 12:49:10;;;;;;;7.78;3.75;;;;;;;32.10;26.57;100224.66;5568819;32;33850;-58
2022/08/05 12:52:17;;;;;;;5.60;3.33;;;;;;;32.15;26.69;100229.66;5567925;32;34401;-58
2022/08/05 12:55:30;;;;;;;5.95;3.50;;;;;;;32.13;26.14;100226.56;5570640;32;33648;-58
2022/08/05 12:58:34;;;;;;;6.45;3.60;;;;;;;32.17;26.40;100215.38;5568814;32;34263;-58
2022/08/05 13:01:58;;;;;;;6.53;3.78;;;;;;;32.22;26.33;100212.09;5568954;32;34355;-58
2022/08/05 13:05:09;;;;;;;6.57;3.50;;;;;;;32.43;26.02;100213.59;5566131;32;34387;-58
2022/08/05 13:08:18;;;;;;;6.30;3.50;;;;;;;32.21;27.31;100200.22;5568183;32;34418;-58
2022/08/05 13:11:26;;;;;;;5.22;3.33;;;;;;;32.32;26.44;100208.28;5550319;32;33673;-58
2022/08/05 13:14:52;;;;;;;4.72;3.60;;;;;;;32.25;26.60;100208.44;5561878;32;34408;-58
2022/08/05 13:18:06;;;;;;;5.87;3.37;;;;;;;32.26;26.60;100188.63;5569423;32;33769;-58
2022/08/05 13:21:09;;;;;;;4.85;3.85;;;;;;;32.38;26.80;100194.66;5568656;32;33562;-58
2022/08/05 13:24:13;;;;;;;6.30;4.00;;;;;;;32.25;26.17;100183.47;5570244;32;34275;-58
2022/08/05 13:27:41;;;;;;;4.37;3.62;;;;;;;32.05;26.99;100180.78;5567458;32;34313;-58
2022/08/05 13:30:43;;;;;;;6.18;3.50;;;;;;;32.22;26.86;100178.81;5567953;32;34428;-58
2022/08/05 13:33:49;;;;;;;7.57;3.53;;;;;;;32.21;26.51;100185.56;5554936;32;34496;-58
2022/08/05 13:37:11;;;;;;;4.72;3.40;;;;;;;32.19;26.17;100174.94;5560796;32;33715;-58
2022/08/05 13:40:14;;;;;;;5.60;3.37;;;;;;;32.35;26.11;100165.03;5568460;32;33632;-58
2022/08/05 13:43:36;;;;;;;4.97;3.30;;;;;;;32.39;25.99;100168.50;5567270;32;33797;-58
2022/08/05 13:46:47;;;;;;;8.50;3.40;;;;;;;32.33;26.12;100165.47;5568107;32;33617;-58
2022/08/05 13:50:09;;;;;;;4.70;3.47;;;;;;;32.36;25.94;100159.06;5570012;32;33680;-58
2022/08/05 13:53:17;;;;;;;7.55;3.50;;;;;;;32.34;25.36;100153.16;5568176;32;33485;-58
2022/08/05 13:56:20;;;;;;;3.80;3.30;;;;;;;32.20;26.19;100148.75;5570099;32;34389;-58
2022/08/05 13:59:22;;;;;;;5.93;3.20;;;;;;;32.24;26.09;100145.87;5569908;32;33695;-58
2022/08/05 14:02:26;;;;;;;5.25;3.72;;;;;;;32.23;25.99;100144.31;5569661;32;33689;-58
2022/08/05 14:05:32;;;;;;;7.75;3.55;;;;;;;32.20;26.22;100143.19;5569947;32;34466;-58
2022/08/05 14:08:54;;;;;;;4.30;3.28;;;;;;;32.29;26.54;100139.81;5569885;32;33692;-58
2022/08/05 14:12:00;;;;;;;7.15;3.20;;;;;;;32.38;26.10;100128.09;5568797;32;33834;-58
2022/08/05 14:15:18;;;;;;;7.60;3.40;;;;;;;32.39;25.54;100136.00;5569010;32;35916;-58
2022/08/05 14:18:41;;;;;;;4.68;3.03;;;;;;;32.50;25.18;100130.19;5567122;32;33668;-59
2022/08/05 14:21:43;;;;;;;6.37;3.33;;;;;;;32.66;25.19;100119.06;5566857;32;33693;-58
2022/08/05 14:25:06;;;;;;;9.32;3.28;;;;;;;32.64;25.65;100124.25;5566792;32;33770;-58
2022/08/05 14:28:23;;;;;;;4.68;3.17;;;;;;;32.67;25.20;100125.37;5569817;32;33699;-58
2022/08/05 14:31:29;;;;;;;5.18;3.22;;;;;;;32.70;25.05;100122.50;5569732;32;33249;-58
2022/08/05 14:34:51;;;;;;;4.07;2.97;;;;;;;32.68;24.90;100115.81;5569003;32;34201;-58
